Time;durP1;ratioP1;P1;durP2;ratioP2;P2;SDS_P1;SDS_P2;PMS_P1;PMS_P2;Temp;Humidity;BMP_temperature;BMP_pressure;BME280_temperature;BME280_humidity;BME280_pressure;Samples;Min_cycle;Max_cycle;Signal;HPM_P1;HPM_P2
2022/06/03 00:03:03;;;;;;;11.77;11.38;;;;;;;-141.02;100.00;84594.97;5133509;27;20184;-73
2022/06/03 00:06:04;;;;;;;12.27;11.88;;;;;;;-141.02;100.00;84598.84;5133425;27;20224;-72
2022/06/03 00:09:01;;;;;;;12.00;11.60;;;;;;;-141.02;100.00;84600.78;5117771;27;20281;-73
2022/06/03 00:12:01;;;;;;;11.90;11.50;;;;;;;-141.02;100.00;84616.34;5133397;27;20189;-73
2022/06/03 00:14:54;;;;;;;11.88;11.48;;;;;;;-141.02;100.00;84606.63;5133314;27;20275;-73
2022/06/03 00:17:43;;;;;;;11.60;11.20;;;;;;;-141.02;100.00;84647.44;5133629;27;20219;-73
2022/06/03 00:20:25;;;;;;;11.30;11.00;;;;;;;-141.02;100.00;84647.44;5133582;27;20188;-73
2022/06/03 00:23:07;;;;;;;10.90;10.60;;;;;;;-141.02;100.00;84674.63;5133178;27;20185;-73
2022/06/03 00:25:57;;;;;;;11.13;10.82;;;;;;;-141.02;100.00;84674.63;5133442;27;20212;-73
2022/06/03 00:28:53;;;;;;;11.10;10.80;;;;;;;-141.02;100.00;84643.53;5133469;27;20264;-72
2022/06/03 00:31:38;;;;;;;10.40;10.10;;;;;;;-141.02;100.00;84732.94;5126383;27;20283;-72
2022/06/03 00:34:21;;;;;;;10.27;9.98;;;;;;;-141.02;100.00;84791.25;5133033;27;20615;-73
2022/06/03 00:37:01;;;;;;;10.73;10.43;;;;;;;-141.02;100.00;84810.69;5133081;27;20245;-73
2022/06/03 00:39:54;;;;;;;10.68;10.38;;;;;;;-141.02;100.00;84861.22;5133251;28;20191;-73
2022/06/03 00:42:53;;;;;;;11.00;10.70;;;;;;;-141.02;100.00;84872.88;5133246;28;20208;-73
2022/06/03 00:45:36;;;;;;;10.60;10.30;;;;;;;-141.02;100.00;84911.75;5133134;28;20224;-74
2022/06/03 00:48:17;;;;;;;10.32;10.02;;;;;;;-141.02;100.00;84962.28;5133174;28;20220;-73
2022/06/03 00:51:14;;;;;;;9.80;9.50;;;;;;;-141.02;100.00;85036.16;5133104;27;20669;-73
2022/06/03 00:54:06;;;;;;;9.20;8.90;;;;;;;-141.02;100.00;85226.63;5133197;27;20241;-73
2022/06/03 00:57:01;;;;;;;8.85;8.65;;;;;;;-141.02;100.00;85407.41;5098875;27;20196;-73
2022/06/03 00:59:46;;;;;;;9.10;8.80;;;;;;;-141.02;100.00;85508.50;5136999;27;20227;-72
2022/06/03 01:02:29;;;;;;;9.23;8.93;;;;;;;-141.02;100.00;85527.94;5136995;27;20694;-73
2022/06/03 01:05:10;;;;;;;9.70;9.40;;;;;;;-141.02;100.00;85372.41;5137516;27;20589;-73
2022/06/03 01:07:52;;;;;;;10.15;9.85;;;;;;;-141.02;100.00;85545.44;5136945;27;20284;-73
2022/06/03 01:10:31;;;;;;;10.80;10.50;;;;;;;-141.02;100.00;85498.78;5137202;27;20250;-73
2022/06/03 01:13:26;;;;;;;10.13;9.82;;;;;;;-141.02;100.00;85452.13;5137043;27;20647;-72
2022/06/03 01:15:59;;;;;;;9.70;9.40;;;;;;;-141.02;100.00;85543.47;5136710;27;20275;-72
2022/06/03 01:18:44;;;;;;;9.40;9.10;;;;;;;-141.02;100.00;85559.03;5136639;27;20666;-73
2022/06/03 01:21:23;;;;;;;9.30;9.00;;;;;;;-141.02;100.00;85656.22;5136973;27;20240;-73
2022/06/03 01:24:38;;;;;;;9.07;8.77;;;;;;;-141.02;100.00;85708.72;5136524;27;20661;-73
2022/06/03 01:27:43;;;;;;;8.30;8.10;;;;;;;-141.02;100.00;85763.16;5053180;28;20214;-73
2022/06/03 01:30:21;;;;;;;9.20;8.90;;;;;;;-141.02;100.00;85811.75;5117505;27;20234;-73
2022/06/03 01:33:09;;;;;;;9.00;8.70;;;;;;;-141.02;100.00;85835.09;5136429;27;20223;-73
2022/06/03 01:35:57;;;;;;;8.70;8.50;;;;;;;-141.02;100.00;85864.25;5136335;27;20196;-73
2022/06/03 01:38:40;;;;;;;8.60;8.40;;;;;;;-141.02;100.00;85942.03;5136255;27;20188;-73
2022/06/03 01:41:24;;;;;;;8.70;8.50;;;;;;;-141.02;100.00;86050.91;5136759;27;20226;-73
2022/06/03 01:44:21;;;;;;;8.40;8.20;;;;;;;-141.02;100.00;86132.56;5136285;27;20666;-73
2022/06/03 01:47:16;;;;;;;7.75;7.55;;;;;;;-141.02;100.00;86237.53;5129588;27;20311;-73
2022/06/03 01:50:11;;;;;;;8.00;7.80;;;;;;;-141.02;100.00;86395.03;5136479;27;20271;-73
2022/06/03 01:53:04;;;;;;;7.90;7.70;;;;;;;-141.02;100.00;86579.78;5136040;27;20181;-73
2022/06/03 01:56:10;;;;;;;7.80;7.60;;;;;;;-141.02;100.00;86710.06;5136297;27;20185;-73
2022/06/03 01:59:08;;;;;;;7.60;7.40;;;;;;;-141.02;100.00;86791.72;5136156;27;20611;-73
2022/06/03 02:02:14;;;;;;;7.78;7.57;;;;;;;-141.02;100.00;86805.34;5136075;27;20279;-73
2022/06/03 02:04:59;;;;;;;7.72;7.53;;;;;;;-141.02;100.00;86832.56;5136005;27;20188;-73
2022/06/03 02:07:52;;;;;;;7.35;7.15;;;;;;;-141.02;100.00;86879.25;5135728;27;20236;-73
2022/06/03 02:10:50;;;;;;;7.20;7.00;;;;;;;-141.02;100.00;86894.81;5135932;27;20181;-73
2022/06/03 02:13:52;;;;;;;7.63;7.43;;;;;;;-141.02;100.00;86918.13;5135946;27;20189;-73
2022/06/03 02:16:47;;;;;;;7.30;7.10;;;;;;;-141.02;100.00;86910.34;5135890;27;20188;-73
2022/06/03 02:19:37;;;;;;;7.00;6.80;;;;;;;-141.02;100.00;86947.31;5135825;27;20189;-73
2022/06/03 02:22:26;;;;;;;7.55;7.35;;;;;;;-141.02;100.00;86947.31;5135786;27;20184;-73
2022/06/03 02:25:32;;;;;;;7.78;7.57;;;;;;;-141.02;100.00;86992.03;5135388;27;20646;-73
2022/06/03 02:28:14;;;;;;;8.00;7.80;;;;;;;-141.02;100.00;86937.59;5133464;27;20220;-73
2022/06/03 02:31:20;;;;;;;8.05;7.85;;;;;;;-141.02;100.00;86906.47;5135923;27;20184;-73
2022/06/03 02:34:11;;;;;;;8.20;8.00;;;;;;;-141.02;100.00;86859.78;5134464;27;20224;-73
2022/06/03 02:36:59;;;;;;;8.80;8.55;;;;;;;-141.02;100.00;86828.69;5135469;27;20192;-73
2022/06/03 02:40:00;;;;;;;8.98;8.68;;;;;;;-141.02;100.00;86820.91;5136251;27;20180;-73
2022/06/03 02:42:45;;;;;;;9.40;9.10;;;;;;;-141.02;100.00;86735.34;5135285;27;20646;-73
2022/06/03 02:45:44;;;;;;;9.75;9.45;;;;;;;-141.02;100.00;86684.78;5136148;27;20542;-73
2022/06/03 02:48:37;;;;;;;9.57;9.27;;;;;;;-141.02;100.00;86583.66;5134837;27;20192;-73
2022/06/03 02:51:28;;;;;;;9.55;9.25;;;;;;;-141.02;100.00;86505.88;5135465;27;20188;-73
2022/06/03 02:54:34;;;;;;;9.85;9.55;;;;;;;-141.02;100.00;86519.50;5135170;27;20268;-73
2022/06/03 02:57:30;;;;;;;10.30;10.00;;;;;;;-141.02;100.00;86490.31;5135088;27;20288;-73
2022/06/03 03:00:19;;;;;;;10.55;10.25;;;;;;;-141.02;100.00;86447.53;5134908;27;20228;-73
2022/06/03 03:03:08;;;;;;;9.73;9.43;;;;;;;-141.02;100.00;86467.00;5134652;27;20185;-73
2022/06/03 03:06:01;;;;;;;11.80;11.40;;;;;;;-141.02;100.00;86321.16;5134686;27;20289;-73
2022/06/03 03:09:03;;;;;;;12.15;11.75;;;;;;;-141.02;100.00;86218.09;5124527;27;20668;-75
2022/06/03 03:11:56;;;;;;;10.50;10.20;;;;;;;-141.02;100.00;86216.16;5134502;27;20631;-73
2022/06/03 03:14:49;;;;;;;9.50;9.20;;;;;;;-141.02;100.00;86187.00;5134442;27;20233;-73
2022/06/03 03:17:48;;;;;;;10.30;10.00;;;;;;;-141.02;100.00;86153.94;5134031;27;20189;-73
2022/06/03 03:20:43;;;;;;;10.48;10.18;;;;;;;-141.02;100.00;86159.78;5134581;27;20665;-73
2022/06/03 03:23:48;;;;;;;11.27;10.88;;;;;;;-141.02;100.00;86085.88;5134282;27;20280;-73
2022/06/03 03:26:28;;;;;;;11.20;10.80;;;;;;;-141.02;100.00;86132.56;5134447;27;20212;-73
2022/06/03 03:29:23;;;;;;;11.02;10.68;;;;;;;-141.02;100.00;86099.50;5134137;27;20271;-73
2022/06/03 03:32:09;;;;;;;11.45;11.05;;;;;;;-141.02;100.00;86082.00;5134416;27;20219;-73
2022/06/03 03:35:05;;;;;;;11.68;11.27;;;;;;;-141.02;100.00;85984.78;5134383;27;20285;-73
2022/06/03 03:37:55;;;;;;;13.27;12.77;;;;;;;-141.02;100.00;85835.09;5134318;27;20203;-73
2022/06/03 03:41:00;;;;;;;14.15;13.65;;;;;;;-141.02;100.00;85584.31;5134190;27;20188;-74
2022/06/03 03:44:02;;;;;;;17.73;16.83;;;;;;;-141.02;100.00;85055.59;5133875;27;20229;-74
2022/06/03 03:47:16;;;;;;;16.20;15.50;;;;;;;-141.02;100.00;84911.75;5119905;27;20223;-74
2022/06/03 03:50:21;;;;;;;17.23;16.52;;;;;;;-141.02;100.00;84682.41;5070464;28;20699;-74
2022/06/03 03:53:21;;;;;;;17.13;16.52;;;;;;;-141.02;100.00;84381.19;5070691;28;20233;-73
2022/06/03 03:56:23;;;;;;;15.80;15.20;;;;;;;-141.02;100.00;84216.00;5128898;27;20615;-73
2022/06/03 03:59:36;;;;;;;15.73;15.13;;;;;;;-141.02;100.00;84126.63;5133659;27;20249;-73
2022/06/03 04:02:25;;;;;;;15.88;15.27;;;;;;;-141.02;100.00;84122.75;5070487;28;20290;-73
2022/06/03 04:05:18;;;;;;;15.95;15.35;;;;;;;-141.02;100.00;84083.88;5128181;27;20193;-73
2022/06/03 04:08:16;;;;;;;15.88;15.27;;;;;;;-141.02;100.00;84070.28;5092516;28;20257;-74
2022/06/03 04:11:07;;;;;;;16.45;15.85;;;;;;;-141.02;100.00;84074.16;5090347;28;20206;-74
2022/06/03 04:14:05;;;;;;;16.42;15.82;;;;;;;-141.02;100.00;84035.28;5092774;28;20218;-73
2022/06/03 04:17:06;;;;;;;17.00;16.30;;;;;;;-141.02;99.85;83982.84;5077933;28;20280;-73
2022/06/03 04:20:06;;;;;;;17.75;17.05;;;;;;;-141.02;93.45;83800.19;5092757;28;20190;-74
2022/06/03 04:23:00;;;;;;;17.60;16.90;;;;;;;-141.02;80.72;83570.91;5089476;28;20648;-74
2022/06/03 04:25:45;;;;;;;17.77;17.08;;;;;;;-141.02;76.31;83469.91;5092319;28;20182;-73
2022/06/03 04:28:40;;;;;;;17.73;17.02;;;;;;;-141.02;73.15;83368.88;5092154;28;20256;-74
2022/06/03 04:31:48;;;;;;;18.27;17.48;;;;;;;-141.02;71.35;83232.88;5079264;28;20247;-74
2022/06/03 04:34:58;;;;;;;17.65;16.95;;;;;;;-141.02;63.52;83015.31;5035637;28;20282;-74
2022/06/03 04:38:00;;;;;;;17.70;17.00;;;;;;;-141.02;59.41;82733.66;5092196;28;20229;-74
2022/06/03 04:41:09;;;;;;;17.17;16.48;;;;;;;-141.02;60.20;82739.47;5074595;28;20225;-74
2022/06/03 04:44:09;;;;;;;17.33;16.63;;;;;;;-141.02;61.72;82743.38;5092467;28;20190;-74
2022/06/03 04:47:24;;;;;;;17.50;16.80;;;;;;;-141.02;60.64;82700.63;5071009;28;20289;-74
2022/06/03 04:50:39;;;;;;;17.10;16.40;;;;;;;-141.02;63.61;82766.69;5092672;28;20202;-74
2022/06/03 04:53:53;;;;;;;16.52;15.93;;;;;;;-141.02;68.74;82859.91;5092231;28;20285;-74
2022/06/03 04:56:55;;;;;;;16.70;16.10;;;;;;;-141.02;71.11;82859.91;5092226;28;20204;-74
2022/06/03 04:59:57;;;;;;;16.50;15.90;;;;;;;-141.02;75.15;82949.28;5092215;28;20284;-73
2022/06/03 05:02:57;;;;;;;16.05;15.45;;;;;;;-141.02;77.55;82962.88;5092209;28;20229;-75
2022/06/03 05:06:14;;;;;;;16.10;15.50;;;;;;;-141.02;84.96;83054.16;5077190;28;20202;-74
2022/06/03 05:09:25;;;;;;;16.30;15.70;;;;;;;-141.02;85.24;82997.84;5133280;27;20272;-74
2022/06/03 05:12:37;;;;;;;15.73;15.13;;;;;;;-141.02;82.35;83050.28;5132713;27;20204;-74
2022/06/03 05:15:49;;;;;;;16.13;15.52;;;;;;;-141.02;80.30;82997.84;5132691;27;20674;-73
2022/06/03 05:19:04;;;;;;;16.08;15.48;;;;;;;-141.02;83.37;83065.81;5084416;28;20224;-74
2022/06/03 05:22:17;;;;;;;16.63;16.02;;;;;;;-141.02;81.48;83025.03;5132971;27;20185;-74
2022/06/03 05:25:19;;;;;;;16.75;16.15;;;;;;;-141.02;79.82;83032.78;5069776;28;20196;-74
2022/06/03 05:28:23;;;;;;;17.38;16.67;;;;;;;-141.02;76.77;82974.53;5101564;28;20277;-74
2022/06/03 05:31:12;;;;;;;17.05;16.35;;;;;;;-141.02;75.43;82951.22;5132803;27;20612;-75
2022/06/03 05:34:12;;;;;;;16.92;16.23;;;;;;;-141.02;82.09;83023.09;5132834;27;20267;-74
2022/06/03 05:37:00;;;;;;;16.55;15.95;;;;;;;-141.02;81.23;82999.78;5130554;27;20270;-74
2022/06/03 05:39:52;;;;;;;16.67;16.02;;;;;;;-141.02;80.22;83003.66;5132480;27;20711;-75
2022/06/03 05:43:01;;;;;;;16.90;16.20;;;;;;;-141.02;80.08;83005.59;5136576;27;20275;-74
2022/06/03 05:45:59;;;;;;;16.77;16.13;;;;;;;-141.02;87.03;83065.81;5072918;28;20641;-74
2022/06/03 05:48:39;;;;;;;16.75;16.15;;;;;;;-141.02;91.71;83026.97;5134316;27;20236;-74
2022/06/03 05:51:13;;;;;;;16.20;15.60;;;;;;;-141.02;97.94;83166.84;5136393;27;20188;-75
2022/06/03 05:53:50;;;;;;;15.77;15.18;;;;;;;-141.02;100.00;83207.63;5136119;27;20274;-74
2022/06/03 05:56:34;;;;;;;16.05;15.45;;;;;;;-141.02;98.78;83166.84;5135972;27;20238;-75
2022/06/03 05:59:12;;;;;;;15.65;15.05;;;;;;;-141.02;98.58;83221.22;5136204;27;20275;-75
2022/06/03 06:02:03;;;;;;;15.68;15.07;;;;;;;-141.02;99.56;83190.16;5136212;27;20268;-74
2022/06/03 06:04:41;;;;;;;15.40;14.80;;;;;;;-141.02;100.00;83252.31;5135833;27;20271;-74
2022/06/03 06:07:18;;;;;;;15.40;14.80;;;;;;;-141.02;100.00;83194.03;5135747;27;20259;-74
2022/06/03 06:09:52;;;;;;;14.90;14.40;;;;;;;-141.02;100.00;83267.84;5135702;27;20220;-75
2022/06/03 06:12:48;;;;;;;15.70;15.10;;;;;;;-141.02;99.33;83232.88;5135677;27;20184;-74
2022/06/03 06:15:40;;;;;;;15.88;15.27;;;;;;;-141.02;97.41;83232.88;5135984;27;20245;-75
2022/06/03 06:18:16;;;;;;;16.17;15.57;;;;;;;-141.02;93.58;83170.72;5135891;27;20189;-73
2022/06/03 06:20:56;;;;;;;16.38;15.77;;;;;;;-141.02;94.23;83166.84;5135741;27;20191;-74
2022/06/03 06:23:39;;;;;;;15.73;15.13;;;;;;;-141.02;94.96;83174.59;5135861;27;20184;-74
2022/06/03 06:26:32;;;;;;;16.70;16.00;;;;;;;-141.02;90.56;83077.47;5135420;27;20202;-74
2022/06/03 06:29:32;;;;;;;17.00;16.30;;;;;;;-141.02;90.33;83042.50;5135578;27;20305;-74
2022/06/03 06:32:49;;;;;;;16.85;16.15;;;;;;;-141.02;92.69;83147.41;5135878;27;20300;-73
2022/06/03 06:35:45;;;;;;;16.30;15.70;;;;;;;-141.02;89.38;83050.28;5072270;28;20218;-75
2022/06/03 06:38:20;;;;;;;16.83;16.13;;;;;;;-141.02;93.01;83077.47;5072019;28;20617;-74
2022/06/03 06:40:59;;;;;;;16.80;16.10;;;;;;;-141.02;94.32;83170.72;5072270;28;20757;-73
2022/06/03 06:43:40;;;;;;;16.70;16.00;;;;;;;-141.02;91.79;83093.00;5071861;28;20233;-74
2022/06/03 06:46:18;;;;;;;17.13;16.42;;;;;;;-141.02;93.42;83161.00;5071971;28;20202;-75
2022/06/03 06:49:02;;;;;;;16.85;16.15;;;;;;;-141.02;95.49;83155.19;5071718;28;20312;-74
2022/06/03 06:51:44;;;;;;;17.10;16.40;;;;;;;-141.02;91.88;83213.47;5071076;28;20674;-74
2022/06/03 06:54:19;;;;;;;17.10;16.40;;;;;;;-141.02;93.84;83240.66;5071904;28;20402;-74
2022/06/03 06:56:50;;;;;;;16.83;16.13;;;;;;;-141.02;95.04;83178.50;5071639;28;20605;-74
2022/06/03 06:59:24;;;;;;;16.70;16.00;;;;;;;-141.02;95.33;83254.25;5071696;28;20723;-74
2022/06/03 07:02:04;;;;;;;16.70;16.00;;;;;;;-141.02;95.38;83127.97;5071773;28;20255;-74
2022/06/03 07:04:36;;;;;;;17.50;16.80;;;;;;;-141.02;97.33;83298.94;5071482;28;20277;-74
2022/06/03 07:07:13;;;;;;;16.98;16.27;;;;;;;-141.02;98.38;83269.78;5124887;27;20232;-74
2022/06/03 07:09:51;;;;;;;16.75;16.05;;;;;;;-141.02;100.00;83260.09;5134532;27;20626;-74
2022/06/03 07:12:22;;;;;;;17.30;16.60;;;;;;;-141.02;100.00;83310.59;5134947;27;20555;-74
2022/06/03 07:15:01;;;;;;;18.48;17.67;;;;;;;-141.02;97.19;83240.66;5134773;27;20180;-74
2022/06/03 07:20:41;;;;;;;16.88;16.17;;;;;;;-141.02;97.73;83221.22;5135058;27;20179;-74
2022/06/03 07:23:14;;;;;;;16.83;16.13;;;;;;;-141.02;95.15;83265.91;5134839;27;20270;-74
2022/06/03 07:25:46;;;;;;;16.60;15.90;;;;;;;-141.02;96.47;83225.13;5134259;27;20671;-74
2022/06/03 07:28:27;;;;;;;17.02;16.33;;;;;;;-141.02;95.94;83219.28;5134427;27;20294;-74
2022/06/03 07:31:04;;;;;;;17.17;16.48;;;;;;;-141.02;94.40;83093.00;5134086;27;20187;-74
2022/06/03 07:33:46;;;;;;;17.17;16.48;;;;;;;-141.02;94.64;83151.28;5134438;27;20189;-74
2022/06/03 07:36:18;;;;;;;17.35;16.65;;;;;;;-141.02;94.48;83137.69;5134618;27;20180;-74
2022/06/03 07:38:52;;;;;;;17.10;16.40;;;;;;;-141.02;95.14;83170.72;5134602;27;20219;-74
2022/06/03 07:41:27;;;;;;;17.33;16.63;;;;;;;-141.02;95.90;83155.19;5134254;27;20194;-74
2022/06/03 07:44:00;;;;;;;17.15;16.45;;;;;;;-141.02;89.81;83112.44;5134458;27;20188;-73
2022/06/03 07:46:34;;;;;;;17.88;17.08;;;;;;;-141.02;89.40;83085.25;5134133;27;20276;-74
2022/06/03 07:49:06;;;;;;;17.77;16.98;;;;;;;-141.02;88.81;83100.78;5134012;27;20293;-74
2022/06/03 07:51:39;;;;;;;18.02;17.23;;;;;;;-141.02;86.51;83038.63;5134120;27;20565;-74
2022/06/03 07:54:12;;;;;;;17.27;16.58;;;;;;;-141.02;86.67;83005.59;5134032;27;20187;-75
2022/06/03 07:56:40;;;;;;;18.02;17.23;;;;;;;-141.02;84.29;82980.34;5133999;27;20245;-74
2022/06/03 07:59:14;;;;;;;17.75;17.05;;;;;;;-141.02;85.60;82992.00;5133560;27;20249;-74
2022/06/03 08:01:45;;;;;;;18.27;17.48;;;;;;;-141.02;79.91;82929.84;5133933;27;20216;-74
2022/06/03 08:04:27;;;;;;;18.25;17.45;;;;;;;-141.02;84.69;82964.81;5133371;27;20750;-74
2022/06/03 08:12:29;;;;;;;18.00;17.20;;;;;;;-141.02;79.26;82821.06;5133765;27;20224;-74
2022/06/03 08:14:56;;;;;;;18.42;17.63;;;;;;;-141.02;75.13;82696.75;5133645;27;20207;-74
2022/06/03 08:17:24;;;;;;;18.45;17.65;;;;;;;-141.02;74.59;82679.28;5133624;27;20196;-75
2022/06/03 08:19:55;;;;;;;18.67;17.88;;;;;;;-141.02;71.82;82696.75;5133511;27;20192;-75
2022/06/03 08:22:24;;;;;;;18.10;17.30;;;;;;;-141.02;76.55;82828.84;5133870;27;20222;-75
2022/06/03 08:24:55;;;;;;;18.05;17.25;;;;;;;-141.02;73.00;83256.19;5133116;27;20195;-74
2022/06/03 08:27:25;;;;;;;18.30;17.50;;;;;;;-141.02;73.54;82688.97;5133122;27;20192;-74
2022/06/03 08:29:58;;;;;;;17.70;16.90;;;;;;;-141.02;75.09;82755.03;5134246;27;20227;-73
2022/06/03 08:32:31;;;;;;;17.85;17.05;;;;;;;-141.02;75.56;82760.84;5133421;27;20626;-76
2022/06/03 08:35:01;;;;;;;17.95;17.15;;;;;;;-141.02;75.21;82714.22;5133158;27;20279;-75
2022/06/03 08:37:33;;;;;;;18.25;17.45;;;;;;;-141.02;73.06;82665.69;5132933;27;20541;-75
2022/06/03 08:40:02;;;;;;;19.85;18.92;;;;;;;-141.02;70.42;82665.69;5133323;27;20188;-75
2022/06/03 08:42:35;;;;;;;18.48;17.67;;;;;;;-141.02;72.33;82840.50;5133251;28;20224;-75
2022/06/03 08:45:17;;;;;;;18.05;17.25;;;;;;;-141.02;74.68;82840.50;5133319;27;20181;-75
2022/06/03 08:47:49;;;;;;;17.83;17.02;;;;;;;-141.02;76.60;82758.91;5133217;28;20185;-75
2022/06/03 08:50:29;;;;;;;18.27;17.48;;;;;;;-141.02;73.45;82848.25;5133224;28;20239;-74
2022/06/03 08:53:04;;;;;;;18.45;17.65;;;;;;;-141.02;71.52;82661.78;5133240;28;20653;-74
2022/06/03 08:55:47;;;;;;;18.38;17.58;;;;;;;-141.02;71.49;82863.78;5132892;28;20198;-74
2022/06/03 08:58:32;;;;;;;18.65;17.85;;;;;;;-141.02;67.37;82712.28;5133214;28;20215;-74
2022/06/03 09:01:07;;;;;;;19.17;18.27;;;;;;;-141.02;67.87;82677.31;5133208;27;20612;-75
2022/06/03 09:03:48;;;;;;;18.80;17.90;;;;;;;-141.02;67.11;82688.97;5133099;28;20226;-75
2022/06/03 09:06:40;;;;;;;18.33;17.52;;;;;;;-141.02;66.91;82702.56;5132575;28;20315;-75
2022/06/03 09:09:18;;;;;;;18.73;17.83;;;;;;;-141.02;68.48;82692.88;5132672;27;20263;-74
2022/06/03 09:11:50;;;;;;;18.67;17.77;;;;;;;-141.02;70.05;82669.56;5132691;28;20643;-75
2022/06/03 09:14:22;;;;;;;18.63;17.73;;;;;;;-141.02;70.48;82727.84;5132981;27;20293;-74
2022/06/03 09:16:51;;;;;;;18.35;17.55;;;;;;;-141.02;70.68;82683.16;5136394;27;20189;-75
2022/06/03 09:19:24;;;;;;;18.80;17.90;;;;;;;-141.02;67.32;82560.78;5136672;27;20280;-74
2022/06/03 09:21:55;;;;;;;19.42;18.52;;;;;;;-141.02;66.24;82549.13;5136798;27;20699;-76
2022/06/03 09:24:26;;;;;;;19.17;18.27;;;;;;;-141.02;65.66;82574.38;5136973;27;20265;-75
2022/06/03 09:26:55;;;;;;;19.45;18.55;;;;;;;-141.02;67.77;82615.16;5136551;27;20670;-75
2022/06/03 09:29:23;;;;;;;19.35;18.45;;;;;;;-141.02;68.12;82687.03;5136450;27;20273;-75
2022/06/03 09:31:53;;;;;;;19.35;18.45;;;;;;;-141.02;66.65;82652.06;5136717;27;20197;-76
2022/06/03 09:34:33;;;;;;;19.40;18.50;;;;;;;-141.02;65.43;82661.78;5136939;27;20213;-74
2022/06/03 09:37:03;;;;;;;19.08;18.17;;;;;;;-141.02;67.13;82654.03;5136413;27;20189;-74
2022/06/03 09:39:32;;;;;;;19.20;18.30;;;;;;;-141.02;63.75;82556.91;5136577;27;20207;-74
2022/06/03 09:42:00;;;;;;;18.90;18.10;;;;;;;-141.02;63.93;82531.66;5136546;27;20227;-73
2022/06/03 09:44:28;;;;;;;18.77;17.98;;;;;;;-141.02;65.16;82467.56;5136511;27;20224;-75
2022/06/03 09:47:01;;;;;;;18.75;17.95;;;;;;;-141.02;62.31;82318.00;5136418;27;20249;-75
2022/06/03 09:49:30;;;;;;;18.90;18.00;;;;;;;-141.02;57.61;82257.81;5136116;27;20590;-75
2022/06/03 09:51:57;;;;;;;19.90;19.00;;;;;;;-141.02;57.36;82184.00;5136291;27;20197;-75
2022/06/03 09:54:28;;;;;;;19.60;18.70;;;;;;;-141.02;57.33;82102.44;5136043;27;20198;-75
2022/06/03 09:56:59;;;;;;;19.90;19.00;;;;;;;-141.02;55.31;82086.91;5136024;27;20677;-76
2022/06/03 09:59:27;;;;;;;19.52;18.63;;;;;;;-141.02;52.45;82017.00;5136256;27;20184;-75
2022/06/03 10:01:54;;;;;;;19.70;18.80;;;;;;;-141.02;52.35;81937.38;5135948;27;20225;-76
2022/06/03 10:04:24;;;;;;;19.90;19.00;;;;;;;-141.02;52.67;81980.09;5135846;27;20192;-74
2022/06/03 10:06:52;;;;;;;19.65;18.75;;;;;;;-141.02;54.41;82040.28;5135589;27;20315;-73
2022/06/03 10:17:46;;;;;;;18.92;18.02;;;;;;;-141.02;51.95;81945.13;5136380;27;20309;-75
2022/06/03 10:20:13;;;;;;;19.27;18.38;;;;;;;-141.02;51.32;81916.00;5135605;27;20196;-74
2022/06/03 10:22:41;;;;;;;19.30;18.40;;;;;;;-141.02;51.55;81884.94;5135657;27;20196;-74
2022/06/03 10:25:10;;;;;;;19.08;18.27;;;;;;;-141.02;51.49;81801.44;5135775;27;20200;-75
2022/06/03 10:27:39;;;;;;;19.10;18.20;;;;;;;-141.02;53.78;81935.44;5135966;27;20253;-74
2022/06/03 10:30:08;;;;;;;19.00;18.20;;;;;;;-141.02;50.55;81848.03;5135338;27;20285;-74
2022/06/03 10:32:36;;;;;;;18.60;17.80;;;;;;;-141.02;51.73;81888.81;5135727;27;20653;-75
2022/06/03 10:35:13;;;;;;;18.55;17.75;;;;;;;-141.02;51.54;81890.75;5135494;27;20276;-73
2022/06/03 10:37:48;;;;;;;18.75;17.95;;;;;;;-141.02;51.19;81900.47;5136097;27;20275;-73
2022/06/03 10:40:16;;;;;;;18.77;17.98;;;;;;;-141.02;51.60;81844.16;5135548;27;20189;-74
2022/06/03 10:42:48;;;;;;;18.83;18.02;;;;;;;-141.02;52.02;81883.00;5135427;27;20192;-74
2022/06/03 10:45:16;;;;;;;18.65;17.85;;;;;;;-141.02;53.22;81875.22;5135044;27;20650;-74
2022/06/03 10:47:45;;;;;;;18.48;17.67;;;;;;;-141.02;53.56;81941.25;5135065;27;20196;-76
2022/06/03 10:50:25;;;;;;;18.50;17.70;;;;;;;-141.02;52.15;81834.44;5135126;27;20224;-74
2022/06/03 11:01:36;;;;;;;18.65;17.85;;;;;;;-141.02;50.29;81782.03;5135399;27;20326;-74
2022/06/03 11:04:03;;;;;;;18.85;18.05;;;;;;;-141.02;52.10;81807.25;5135050;27;20184;-74
2022/06/03 11:06:35;;;;;;;18.48;17.67;;;;;;;-141.02;52.76;81857.75;5134643;27;20259;-72
2022/06/03 11:09:06;;;;;;;19.05;18.25;;;;;;;-141.02;52.85;81853.88;5134561;27;20245;-73
2022/06/03 11:11:45;;;;;;;19.08;18.27;;;;;;;-141.02;51.42;81780.09;5134592;27;20191;-72
2022/06/03 11:14:32;;;;;;;19.02;18.23;;;;;;;-141.02;52.04;81760.66;5135298;27;20276;-73
2022/06/03 11:17:13;;;;;;;19.42;18.52;;;;;;;-141.02;50.91;81764.53;5134781;27;20192;-73
2022/06/03 11:19:44;;;;;;;19.33;18.42;;;;;;;-141.02;53.31;81884.94;5134342;27;20719;-78
2022/06/03 11:22:23;;;;;;;18.85;18.05;;;;;;;-141.02;52.55;81783.97;5134936;27;20641;-72
2022/06/03 11:25:02;;;;;;;19.15;18.25;;;;;;;-141.02;50.66;81743.19;5134543;27;20275;-74
2022/06/03 11:27:39;;;;;;;19.60;18.70;;;;;;;-141.02;52.49;81745.13;5134561;27;20188;-72
2022/06/03 11:30:14;;;;;;;19.20;18.30;;;;;;;-141.02;50.67;81760.66;5134414;27;20208;-77
2022/06/03 11:32:46;;;;;;;18.90;18.10;;;;;;;-141.02;50.83;81723.78;5134486;27;20184;-74
2022/06/03 11:35:25;;;;;;;19.40;18.50;;;;;;;-141.02;51.86;81717.94;5134140;27;20265;-74
2022/06/03 11:37:54;;;;;;;19.48;18.58;;;;;;;-141.02;50.67;81686.88;5133841;27;20216;-72
2022/06/03 11:40:25;;;;;;;19.15;18.25;;;;;;;-141.02;51.51;81725.72;5134280;27;20279;-75
2022/06/03 11:42:57;;;;;;;19.10;18.30;;;;;;;-141.02;51.79;81760.66;5134239;27;20189;-74
2022/06/03 11:45:35;;;;;;;19.73;18.83;;;;;;;-141.02;50.64;81580.06;5133939;27;20654;-74
2022/06/03 11:48:06;;;;;;;19.60;18.80;;;;;;;-141.02;50.29;81593.66;5134166;27;20189;-75
2022/06/03 11:50:36;;;;;;;19.55;18.67;;;;;;;-141.02;51.80;81655.81;5133788;27;20769;-73
2022/06/03 11:53:04;;;;;;;18.95;18.15;;;;;;;-141.02;52.50;81667.47;5133735;27;20196;-73
2022/06/03 11:55:33;;;;;;;19.48;18.67;;;;;;;-141.02;50.89;81595.59;5133690;27;20283;-76
2022/06/03 11:58:06;;;;;;;19.13;18.33;;;;;;;-141.02;50.67;81609.19;5133777;27;20279;-73
2022/06/03 12:00:39;;;;;;;19.42;18.63;;;;;;;-141.02;51.66;81721.81;5133856;27;20184;-74
2022/06/03 12:03:30;;;;;;;19.33;18.52;;;;;;;-141.02;52.01;81747.06;5133879;27;20231;-75
2022/06/03 12:06:01;;;;;;;19.23;18.42;;;;;;;-141.02;51.58;81760.66;5133549;27;20288;-73
2022/06/03 12:08:41;;;;;;;19.38;18.58;;;;;;;-141.02;52.18;81826.69;5133408;27;20197;-76
2022/06/03 12:13:14;;;;;;;19.50;18.70;;;;;;;-141.02;53.78;81931.53;5133468;27;20657;-73
2022/06/03 12:14:13;;;;;;;18.75;17.95;;;;;;;-141.02;54.67;81954.84;5133412;27;20177;-75
2022/06/03 12:16:57;;;;;;;19.15;18.35;;;;;;;-141.02;55.08;81954.84;5133619;27;20263;-73
2022/06/03 12:19:42;;;;;;;19.55;18.70;;;;;;;-141.02;54.44;81949.03;5133331;27;20227;-73
2022/06/03 12:22:35;;;;;;;19.58;18.77;;;;;;;-141.02;55.02;81958.72;5133500;27;20238;-72
2022/06/03 12:25:05;;;;;;;19.75;18.95;;;;;;;-141.02;56.65;82024.75;5133293;27;20241;-73
2022/06/03 12:27:35;;;;;;;19.08;18.27;;;;;;;-141.02;55.83;82026.69;5133152;27;20645;-73
2022/06/03 12:30:18;;;;;;;19.60;18.73;;;;;;;-141.02;56.70;82044.19;5133667;27;20260;-73
2022/06/03 12:32:53;;;;;;;19.60;18.70;;;;;;;-141.02;57.51;82117.97;5133550;27;20185;-74
2022/06/03 12:35:56;;;;;;;19.23;18.42;;;;;;;-141.02;57.30;82079.13;5133104;27;20653;-73
2022/06/03 12:38:33;;;;;;;19.17;18.38;;;;;;;-141.02;57.66;82110.22;5133421;27;20249;-73
2022/06/03 12:41:04;;;;;;;19.05;18.25;;;;;;;-141.02;59.63;81982.03;5133012;27;20188;-73
2022/06/03 12:43:33;;;;;;;19.27;18.48;;;;;;;-141.02;59.76;82176.25;5133372;27;20658;-74
2022/06/03 12:46:02;;;;;;;19.40;18.60;;;;;;;-141.02;59.60;82117.97;5132936;27;20721;-71